Time;durP1;ratioP1;P1;durP2;ratioP2;P2;SDS_P1;SDS_P2;PMS_P1;PMS_P2;Temp;Humidity;BMP_temperature;BMP_pressure;BME280_temperature;BME280_humidity;BME280_pressure;Samples;Min_cycle;Max_cycle;Signal;HPM_P1;HPM_P2
2022/09/26 00:02:00;;;;;;;5.28;1.88;;;;;;;12.86;100.00;100882.03;10567202;28;20044;-69
2022/09/26 00:07:00;;;;;;;3.75;1.98;;;;;;;12.88;100.00;100884.53;10585814;28;20035;-70
2022/09/26 00:12:01;;;;;;;4.07;1.85;;;;;;;12.86;100.00;100875.72;10584629;28;20390;-69
2022/09/26 00:17:01;;;;;;;3.75;1.50;;;;;;;12.84;100.00;100861.53;10567039;28;20127;-70
2022/09/26 00:22:02;;;;;;;4.82;1.95;;;;;;;12.77;100.00;100832.50;10566763;28;20082;-69
2022/09/26 00:27:02;;;;;;;2.08;1.85;;;;;;;12.71;100.00;100824.38;10583868;28;20028;-69
2022/09/26 00:32:03;;;;;;;2.35;2.15;;;;;;;12.62;100.00;100823.75;10583537;28;20458;-69
2022/09/26 00:37:03;;;;;;;8.27;2.45;;;;;;;12.62;100.00;100806.63;10584270;28;20084;-69
2022/09/26 00:42:03;;;;;;;2.80;1.92;;;;;;;12.65;100.00;100801.59;10565384;28;20052;-69
2022/09/26 00:47:04;;;;;;;6.70;2.22;;;;;;;12.65;100.00;100781.75;10565399;28;20470;-69
2022/09/26 00:52:08;;;;;;;5.00;1.95;;;;;;;12.65;100.00;100773.59;10582940;28;20023;-69
2022/09/26 00:57:11;;;;;;;2.05;1.92;;;;;;;12.67;100.00;100761.47;10584159;28;20031;-69
2022/09/26 01:02:12;;;;;;;2.25;2.08;;;;;;;12.66;100.00;100748.09;10565845;28;20031;-69
2022/09/26 01:07:17;;;;;;;5.72;2.67;;;;;;;12.65;100.00;100732.84;10582274;28;20482;-69
2022/09/26 01:12:17;;;;;;;2.60;2.40;;;;;;;12.59;100.00;100715.53;10583364;28;20055;-69
2022/09/26 01:17:18;;;;;;;10.60;3.30;;;;;;;12.56;100.00;100688.78;10565466;28;20522;-69
2022/09/26 01:22:43;;;;;;;6.90;2.95;;;;;;;12.51;100.00;100683.19;10564241;28;20038;-69
2022/09/26 01:28:09;;;;;;;9.63;2.78;;;;;;;12.42;100.00;100666.31;10581485;28;20585;-69
2022/09/26 01:33:57;;;;;;;12.75;3.10;;;;;;;12.42;100.00;100650.00;10583411;28;20084;-69
2022/09/26 01:38:58;;;;;;;;;;;;;;;12.38;100.00;100648.78;10565634;28;20055;-69
2022/09/26 01:44:26;;;;;;;7.43;3.38;;;;;;;12.42;100.00;100644.56;10582186;28;19912;-69
2022/09/26 01:49:40;;;;;;;9.63;2.80;;;;;;;12.45;100.00;100649.56;10583106;28;20024;-69
2022/09/26 01:54:43;;;;;;;4.13;3.08;;;;;;;12.46;100.00;100645.81;10581782;28;20374;-69
2022/09/26 01:59:49;;;;;;;4.88;2.78;;;;;;;12.47;100.00;100630.34;10563790;28;20119;-69
2022/09/26 02:05:03;;;;;;;8.57;2.90;;;;;;;12.51;100.00;100623.44;10564467;28;20072;-69
2022/09/26 02:10:12;;;;;;;2.17;2.00;;;;;;;12.53;100.00;100605.03;10531473;28;20270;-69
2022/09/26 02:15:14;;;;;;;8.13;2.58;;;;;;;12.52;100.00;100585.19;10582084;28;20032;-69
2022/09/26 02:20:29;;;;;;;2.80;1.80;;;;;;;12.58;100.00;100588.91;10565986;28;20027;-69
2022/09/26 02:25:29;;;;;;;3.60;1.08;;;;;;;12.61;100.00;100576.78;10582704;28;20035;-69
2022/09/26 02:30:30;;;;;;;2.05;1.58;;;;;;;12.70;100.00;100575.44;10563612;28;20367;-69
2022/09/26 02:40:52;;;;;;;3.88;2.13;;;;;;;12.79;100.00;100557.84;10587178;28;20055;-69
2022/09/26 02:46:10;;;;;;;2.30;2.03;;;;;;;12.74;100.00;100546.81;10554358;28;20096;-69
2022/09/26 02:51:45;;;;;;;1.73;1.55;;;;;;;12.70;100.00;100530.13;10554137;28;20360;-69
2022/09/26 02:56:54;;;;;;;2.50;1.60;;;;;;;12.67;100.00;100516.16;10570932;28;20047;-69
2022/09/26 03:02:06;;;;;;;1.60;1.20;;;;;;;12.60;100.00;100501.75;10554560;28;20043;-69
2022/09/26 03:07:10;;;;;;;3.35;2.10;;;;;;;12.57;100.00;100487.59;10589008;28;20036;-69
2022/09/26 03:12:11;;;;;;;1.58;1.48;;;;;;;12.55;100.00;100481.53;10569786;28;20042;-69
2022/09/26 03:17:11;;;;;;;2.55;2.35;;;;;;;12.53;100.00;100466.50;10568999;28;20524;-68
2022/09/26 03:22:13;;;;;;;2.13;1.35;;;;;;;12.51;100.00;100449.63;10586446;28;20043;-68
2022/09/26 03:27:13;;;;;;;2.58;2.08;;;;;;;12.57;100.00;100446.84;10570600;28;20035;-69
2022/09/26 03:32:14;;;;;;;10.07;1.92;;;;;;;12.57;100.00;100427.84;10552239;28;20031;-69
2022/09/26 03:37:15;;;;;;;5.68;1.45;;;;;;;12.47;100.00;100422.03;10585702;28;20027;-69
2022/09/26 03:42:16;;;;;;;1.70;1.60;;;;;;;12.28;100.00;100404.03;10567955;28;20048;-69
2022/09/26 03:47:17;;;;;;;6.32;2.25;;;;;;;12.00;100.00;100396.34;10586222;28;20467;-68
2022/09/26 03:52:17;;;;;;;1.50;1.27;;;;;;;11.84;100.00;100390.38;10566655;28;20070;-68
2022/09/26 03:57:17;;;;;;;7.22;2.22;;;;;;;11.74;100.00;100378.28;10585838;28;20122;-68
2022/09/26 04:02:19;;;;;;;6.32;2.17;;;;;;;11.66;100.00;100359.56;10550964;28;20114;-69
2022/09/26 04:07:20;;;;;;;2.63;2.42;;;;;;;11.59;100.00;100360.44;10586618;28;20028;-69
2022/09/26 04:12:21;;;;;;;2.97;2.75;;;;;;;11.59;100.00;100338.75;10585705;28;20032;-68
2022/09/26 04:17:21;;;;;;;2.65;2.10;;;;;;;11.64;100.00;100327.22;10566698;28;20506;-68
2022/09/26 04:22:22;;;;;;;5.65;2.25;;;;;;;11.65;100.00;100320.78;10584617;28;20035;-68
2022/09/26 04:27:26;;;;;;;7.80;3.13;;;;;;;11.74;100.00;100296.91;10585265;28;20043;-68
2022/09/26 04:32:26;;;;;;;2.53;2.28;;;;;;;11.76;100.00;100286.69;10587087;28;20036;-68
2022/09/26 04:37:27;;;;;;;2.15;1.95;;;;;;;11.78;100.00;100282.69;10566584;28;20039;-68
2022/09/26 04:42:27;;;;;;;2.53;2.30;;;;;;;11.68;100.00;100257.97;10584326;28;20035;-68
2022/09/26 04:47:27;;;;;;;4.38;2.30;;;;;;;11.72;100.00;100252.91;10584649;28;20063;-68
2022/09/26 04:52:28;;;;;;;3.72;2.95;;;;;;;11.73;100.00;100249.97;10565198;28;20043;-68
2022/09/26 04:57:28;;;;;;;4.60;3.33;;;;;;;11.76;100.00;100238.69;10582591;28;20032;-69
2022/09/26 05:02:28;;;;;;;10.27;3.50;;;;;;;11.72;100.00;100237.47;10583033;28;20039;-67
2022/09/26 05:07:30;;;;;;;8.95;3.60;;;;;;;11.71;100.00;100207.84;10565346;28;20055;-69
2022/09/26 05:12:31;;;;;;;3.05;2.33;;;;;;;11.70;100.00;100208.91;10565020;28;20023;-67
2022/09/26 05:17:33;;;;;;;9.05;3.72;;;;;;;11.61;100.00;100181.22;10563997;28;20043;-67
2022/09/26 05:22:33;;;;;;;6.63;3.28;;;;;;;11.68;100.00;100173.88;10565103;28;20046;-68
2022/09/26 05:27:34;;;;;;;3.72;2.55;;;;;;;11.63;100.00;100162.84;10582644;28;20035;-68
2022/09/26 05:32:34;;;;;;;9.40;3.47;;;;;;;11.63;100.00;100158.25;10563782;28;20024;-67
2022/09/26 05:37:35;;;;;;;7.28;2.63;;;;;;;11.58;100.00;100141.00;10582455;28;20055;-67
2022/09/26 05:42:35;;;;;;;8.27;2.95;;;;;;;11.60;100.00;100144.31;10564526;28;20036;-68
2022/09/26 05:47:35;;;;;;;2.42;2.22;;;;;;;11.63;100.00;100127.59;10583216;28;20035;-67
2022/09/26 05:52:36;;;;;;;10.43;3.88;;;;;;;11.66;100.00;100123.63;10582032;28;20131;-67
2022/09/26 05:57:37;;;;;;;6.35;2.67;;;;;;;11.73;100.00;100099.97;10581820;28;20031;-68
2022/09/26 06:02:37;;;;;;;7.90;2.38;;;;;;;11.78;100.00;100083.84;10582677;28;20032;-68
2022/09/26 06:07:37;;;;;;;2.60;2.45;;;;;;;11.83;100.00;100075.84;10580852;28;20531;-67
2022/09/26 06:12:38;;;;;;;5.45;3.13;;;;;;;11.85;100.00;100082.75;10565209;28;20093;-68
2022/09/26 06:17:38;;;;;;;5.97;2.95;;;;;;;11.95;100.00;100063.22;10557442;28;20034;-67
2022/09/26 06:22:40;;;;;;;11.75;2.83;;;;;;;12.03;100.00;100053.97;10572303;28;20360;-67
2022/09/26 06:27:41;;;;;;;3.70;2.58;;;;;;;12.13;100.00;100034.44;10589426;28;20032;-68
2022/09/26 06:32:41;;;;;;;7.72;3.65;;;;;;;12.10;100.00;100039.25;10588866;28;20031;-67
2022/09/26 06:37:42;;;;;;;2.88;2.67;;;;;;;12.13;100.00;100026.28;10588996;28;20047;-67
2022/09/26 06:42:45;;;;;;;5.88;2.08;;;;;;;12.26;100.00;100012.53;10589522;28;20043;-67
2022/09/26 06:47:46;;;;;;;10.73;2.35;;;;;;;12.26;100.00;99980.78;10589883;28;20031;-68
2022/09/26 06:52:47;;;;;;;9.35;3.70;;;;;;;12.47;100.00;99968.53;10588735;28;20486;-69
2022/09/26 06:57:48;;;;;;;6.82;2.60;;;;;;;12.66;100.00;99972.00;10535720;28;20054;-68
2022/09/26 07:02:50;;;;;;;6.90;2.45;;;;;;;12.66;100.00;99969.28;10588017;28;20031;-68
2022/09/26 07:07:52;;;;;;;4.20;2.85;;;;;;;12.51;100.00;99958.06;10570814;28;20039;-67
2022/09/26 07:12:57;;;;;;;11.65;2.45;;;;;;;12.50;100.00;99940.94;10587853;28;20122;-67
2022/09/26 07:18:01;;;;;;;5.40;2.30;;;;;;;12.56;100.00;99940.00;10569312;28;20059;-68
2022/09/26 07:23:02;;;;;;;5.60;2.80;;;;;;;12.46;100.00;99928.88;10587272;28;20394;-67
2022/09/26 07:28:02;;;;;;;3.10;2.10;;;;;;;12.39;100.00;99921.91;10585357;28;20039;-67
2022/09/26 07:33:03;;;;;;;5.15;2.30;;;;;;;12.42;100.00;99927.72;10569475;28;20031;-68
2022/09/26 07:38:04;;;;;;;1.77;1.67;;;;;;;12.44;100.00;99928.28;10584845;28;20479;-68
2022/09/26 07:43:04;;;;;;;7.47;2.38;;;;;;;12.51;100.00;99926.31;10568273;28;20135;-68
2022/09/26 07:53:25;;;;;;;6.43;2.58;;;;;;;12.47;100.00;99913.41;10585469;28;20390;-68
2022/09/26 07:58:26;;;;;;;4.55;2.13;;;;;;;12.21;100.00;99918.22;10568087;28;20089;-67
2022/09/26 08:03:28;;;;;;;10.65;2.40;;;;;;;12.02;100.00;99917.44;10566795;28;20028;-67
2022/09/26 08:08:29;;;;;;;3.22;2.42;;;;;;;11.91;100.00;99899.25;10566950;28;20031;-67
2022/09/26 08:13:30;;;;;;;5.32;3.65;;;;;;;11.82;100.00;99904.13;10566681;28;20046;-67
2022/09/26 08:18:31;;;;;;;4.60;3.72;;;;;;;11.86;100.00;99894.50;10585267;28;20031;-67
2022/09/26 08:23:32;;;;;;;14.48;3.90;;;;;;;11.88;100.00;99904.31;10566212;28;20555;-67
2022/09/26 08:28:33;;;;;;;11.05;3.63;;;;;;;11.88;100.00;99886.16;10585788;28;20038;-66
2022/09/26 08:33:34;;;;;;;6.00;4.18;;;;;;;11.90;100.00;99873.19;10582524;28;20032;-66
2022/09/26 08:38:35;;;;;;;5.68;3.42;;;;;;;11.89;100.00;99870.69;10564922;28;20052;-66
2022/09/26 08:43:55;;;;;;;13.30;3.20;;;;;;;11.93;100.00;99856.41;10583790;28;20032;-65
2022/09/26 08:49:38;;;;;;;4.25;3.05;;;;;;;11.91;100.00;99849.59;10583687;28;20028;-65
2022/09/26 08:54:39;;;;;;;4.07;3.65;;;;;;;11.87;100.00;99832.97;10485022;28;20368;-66
2022/09/26 08:59:44;;;;;;;7.82;3.85;;;;;;;11.83;100.00;99827.13;10548674;28;20039;-66
2022/09/26 09:04:57;;;;;;;4.60;3.53;;;;;;;12.21;100.00;99823.22;10582017;28;20032;-66
2022/09/26 09:10:00;;;;;;;5.68;3.63;;;;;;;12.42;100.00;99819.09;10582386;28;20482;-66
2022/09/26 09:15:19;;;;;;;11.88;4.00;;;;;;;12.45;100.00;99815.09;10563776;28;20371;-66
2022/09/26 09:20:28;;;;;;;6.95;3.05;;;;;;;12.28;100.00;99815.81;10583192;28;20459;-66
2022/09/26 09:25:34;;;;;;;4.68;3.65;;;;;;;12.22;100.00;99810.47;10583698;28;20035;-66
2022/09/26 09:30:37;;;;;;;4.20;2.80;;;;;;;12.09;100.00;99820.50;10564390;28;20486;-66
2022/09/26 09:35:47;;;;;;;6.05;3.33;;;;;;;12.08;100.00;99812.59;10582233;28;20028;-66
2022/09/26 09:41:03;;;;;;;3.10;2.67;;;;;;;12.20;100.00;99809.88;10531457;28;20051;-67
2022/09/26 09:46:09;;;;;;;6.23;4.13;;;;;;;12.13;100.00;99806.47;10565522;28;20092;-67
2022/09/26 09:51:37;;;;;;;4.80;4.32;;;;;;;12.13;100.00;99799.16;10571564;28;20470;-67
2022/09/26 09:57:09;;;;;;;7.40;2.50;;;;;;;12.13;100.00;99801.84;10591181;28;20032;-68
2022/09/26 10:02:46;;;;;;;4.03;3.05;;;;;;;12.17;100.00;99802.22;10559873;28;20023;-68
2022/09/26 10:07:48;;;;;;;3.22;2.72;;;;;;;12.20;100.00;99799.84;10567721;28;20428;-67
2022/09/26 10:12:50;;;;;;;2.05;1.95;;;;;;;12.25;100.00;99780.97;10572208;28;20454;-67
2022/09/26 10:18:02;;;;;;;2.42;2.22;;;;;;;12.23;100.00;99772.25;10555747;28;20348;-67
2022/09/26 10:23:09;;;;;;;5.82;2.22;;;;;;;12.20;100.00;99761.84;10589652;28;20198;-67
2022/09/26 10:28:10;;;;;;;12.75;2.28;;;;;;;12.28;100.00;99783.22;10589569;28;20040;-67
2022/09/26 10:33:25;;;;;;;4.75;3.03;;;;;;;12.12;100.00;99770.34;10554499;28;20032;-68
2022/09/26 10:38:28;;;;;;;3.83;2.50;;;;;;;12.22;100.00;99783.31;10571359;28;20079;-68
2022/09/26 10:43:30;;;;;;;2.22;2.13;;;;;;;12.29;100.00;99776.72;10588038;28;20128;-68
2022/09/26 10:48:37;;;;;;;2.63;2.42;;;;;;;12.39;100.00;99770.69;10570797;28;20069;-68
2022/09/26 10:53:39;;;;;;;2.00;1.90;;;;;;;12.54;100.00;99767.50;10552955;28;20463;-68
2022/09/26 10:58:41;;;;;;;1.90;1.80;;;;;;;12.61;100.00;99773.63;10570595;28;20031;-68
2022/09/26 11:03:43;;;;;;;1.83;1.55;;;;;;;12.59;100.00;99764.88;10588501;28;20031;-67
2022/09/26 11:08:44;;;;;;;2.75;1.60;;;;;;;12.72;100.00;99763.81;10570148;28;20551;-70
2022/09/26 11:14:05;;;;;;;2.25;2.08;;;;;;;12.91;100.00;99770.72;10553139;28;20031;-67
2022/09/26 11:19:31;;;;;;;3.97;2.47;;;;;;;13.14;100.00;99758.94;10587792;28;20031;-67
2022/09/26 11:24:41;;;;;;;8.20;2.80;;;;;;;13.07;100.00;99769.13;10579469;28;20159;-68
2022/09/26 11:30:08;;;;;;;1.90;1.80;;;;;;;13.29;100.00;99742.13;10587505;28;20042;-68
2022/09/26 11:35:13;;;;;;;2.67;1.63;;;;;;;13.45;100.00;99737.81;10587606;28;20023;-68
2022/09/26 11:40:38;;;;;;;1.70;1.60;;;;;;;13.40;100.00;99745.84;10569395;28;20139;-68
2022/09/26 11:45:54;;;;;;;1.80;1.70;;;;;;;13.26;100.00;99738.00;10585435;28;20102;-69
2022/09/26 11:51:18;;;;;;;1.90;1.77;;;;;;;13.37;100.00;99732.75;10550978;28;20356;-69
2022/09/26 11:56:40;;;;;;;4.55;1.30;;;;;;;13.70;100.00;99721.09;10553241;28;20613;-69
2022/09/26 12:01:53;;;;;;;2.10;1.73;;;;;;;13.56;100.00;99730.63;10586041;28;20032;-69
2022/09/26 12:06:56;;;;;;;1.33;1.30;;;;;;;13.48;100.00;99743.56;10586819;28;20031;-69
2022/09/26 12:12:17;;;;;;;4.45;1.75;;;;;;;13.39;100.00;99744.22;10565430;28;20367;-70
2022/09/26 12:17:35;;;;;;;2.10;2.00;;;;;;;13.56;100.00;99730.63;10585165;28;20035;-69
2022/09/26 12:22:39;;;;;;;2.92;2.72;;;;;;;13.75;100.00;99712.19;10568156;28;20031;-69
2022/09/26 12:27:51;;;;;;;3.40;2.75;;;;;;;13.94;100.00;99713.56;10532947;28;20044;-70
2022/09/26 12:33:01;;;;;;;3.75;3.42;;;;;;;14.05;100.00;99717.28;10585557;28;20429;-69
2022/09/26 12:38:17;;;;;;;6.47;2.45;;;;;;;14.07;100.00;99715.97;10565541;28;20051;-69
2022/09/26 12:43:23;;;;;;;2.57;2.37;;;;;;;14.20;100.00;99698.47;10566499;28;20387;-69
2022/09/26 12:48:50;;;;;;;4.82;3.67;;;;;;;14.52;100.00;99695.13;10565043;28;20514;-69
2022/09/26 12:53:56;;;;;;;14.65;3.90;;;;;;;16.37;100.00;99688.34;10569702;28;20031;-70
2022/09/26 12:59:06;;;;;;;10.07;3.33;;;;;;;17.50;100.00;99678.56;10565588;28;20026;-71
2022/09/26 13:04:29;;;;;;;19.05;3.72;;;;;;;18.59;100.00;99665.22;10584218;28;20024;-70
2022/09/26 13:09:58;;;;;;;13.88;4.25;;;;;;;18.65;100.00;99665.22;10550355;28;20479;-70
2022/09/26 13:15:10;;;;;;;13.85;4.88;;;;;;;18.57;100.00;99655.66;10584417;28;20051;-71
2022/09/26 13:20:44;;;;;;;8.88;2.67;;;;;;;17.90;100.00;99641.34;10565034;28;20038;-71
2022/09/26 13:26:05;;;;;;;5.25;2.97;;;;;;;16.44;100.00;99650.66;10531210;28;20491;-72
2022/09/26 13:31:20;;;;;;;12.63;2.97;;;;;;;15.54;100.00;99672.47;10548181;28;20028;-68
2022/09/26 13:36:20;;;;;;;3.20;2.45;;;;;;;14.57;100.00;99673.38;10583793;28;20043;-68
2022/09/26 13:41:48;;;;;;;0.73;0.73;;;;;;;14.08;100.00;99668.63;10563645;28;20128;-69
2022/09/26 13:47:11;;;;;;;0.73;0.73;;;;;;;13.85;100.00;99671.56;10582113;28;20467;-69
2022/09/26 13:52:20;;;;;;;1.65;1.65;;;;;;;13.74;100.00;99673.28;10565359;28;20052;-70
2022/09/26 13:57:37;;;;;;;0.35;0.35;;;;;;;13.60;100.00;99661.91;10581721;28;20027;-70
2022/09/26 14:02:41;;;;;;;10.98;2.95;;;;;;;13.69;100.00;99654.16;10580471;28;20036;-70
2022/09/26 14:13:14;;;;;;;0.40;0.40;;;;;;;13.68;100.00;99647.88;10582040;28;20035;-70
2022/09/26 14:18:30;;;;;;;6.80;5.65;;;;;;;13.62;100.00;99640.72;10546990;28;20110;-70
2022/09/26 14:23:33;;;;;;;0.30;0.30;;;;;;;13.72;100.00;99632.72;10547510;28;20374;-70
2022/09/26 14:28:35;;;;;;;2.25;2.15;;;;;;;13.81;100.00;99635.81;10581159;28;20039;-70
2022/09/26 14:33:35;;;;;;;2.83;1.17;;;;;;;14.42;100.00;99627.66;10548034;28;20031;-71
2022/09/26 14:38:37;;;;;;;0.73;0.73;;;;;;;14.54;100.00;99639.28;10588964;28;20102;-71
2022/09/26 14:43:38;;;;;;;1.58;1.48;;;;;;;15.01;100.00;99641.44;10570825;28;20035;-72
2022/09/26 14:48:39;;;;;;;0.50;0.50;;;;;;;14.59;100.00;99639.34;10553569;28;20490;-72
2022/09/26 14:53:46;;;;;;;0.70;0.70;;;;;;;14.22;100.00;99641.84;10570802;28;20455;-72
2022/09/26 14:58:47;;;;;;;;;;;;;;;13.85;100.00;99630.75;10571426;28;20375;-72
2022/09/26 15:04:04;;;;;;;0.90;0.90;;;;;;;13.49;100.00;99627.44;10571796;28;19982;-73
2022/09/26 15:09:16;;;;;;;0.30;0.30;;;;;;;13.29;100.00;99621.69;10590239;28;20028;-73
2022/09/26 15:14:50;;;;;;;0.32;0.32;;;;;;;13.14;100.00;99620.31;10555340;28;20036;-72
2022/09/26 15:19:52;;;;;;;1.42;1.35;;;;;;;13.13;100.00;99624.13;10554135;28;20114;-72
2022/09/26 15:24:53;;;;;;;0.73;0.73;;;;;;;13.24;100.00;99628.69;10553802;28;20038;-73
2022/09/26 15:30:04;;;;;;;0.60;0.60;;;;;;;13.32;100.00;99621.19;10571042;28;20031;-73
2022/09/26 15:35:05;;;;;;;0.30;0.30;;;;;;;13.34;100.00;99619.88;10553226;28;20051;-72
2022/09/26 15:40:18;;;;;;;0.43;0.43;;;;;;;13.35;100.00;99613.38;10568189;28;20055;-72
2022/09/26 15:45:38;;;;;;;1.15;1.15;;;;;;;13.29;100.00;99614.34;10584738;28;20475;-72
2022/09/26 15:50:41;;;;;;;0.30;0.30;;;;;;;13.35;100.00;99616.09;10568967;28;20091;-73
2022/09/26 15:55:51;;;;;;;0.40;0.40;;;;;;;13.48;100.00;99614.94;10585668;28;20452;-72
2022/09/26 16:00:51;;;;;;;0.30;0.30;;;;;;;13.58;100.00;99612.38;10567656;28;20531;-72
2022/09/26 16:05:53;;;;;;;0.20;0.20;;;;;;;13.67;100.00;99608.16;10567436;28;20055;-72
2022/09/26 16:10:57;;;;;;;0.35;0.35;;;;;;;13.66;100.00;99617.41;10567749;28;20035;-73
2022/09/26 16:16:02;;;;;;;0.30;0.30;;;;;;;13.48;100.00;99614.94;10566439;28;20041;-71
2022/09/26 16:21:21;;;;;;;0.73;0.73;;;;;;;13.34;100.00;99619.06;10550485;28;20375;-70
2022/09/26 16:26:26;;;;;;;0.40;0.40;;;;;;;13.21;100.00;99614.75;10567168;28;20035;-71
2022/09/26 16:31:28;;;;;;;0.55;0.55;;;;;;;13.03;100.00;99608.47;10566014;28;20454;-71
2022/09/26 16:36:29;;;;;;;0.47;0.47;;;;;;;12.94;100.00;99615.34;10566777;28;20381;-71
2022/09/26 16:41:35;;;;;;;0.30;0.30;;;;;;;12.86;100.00;99617.63;10565717;28;20040;-71
2022/09/26 16:46:37;;;;;;;1.77;1.67;;;;;;;12.80;100.00;99614.03;10566894;28;20053;-71
2022/09/26 16:51:37;;;;;;;7.88;3.28;;;;;;;12.77;100.00;99630.81;10565561;28;20023;-71
2022/09/26 16:56:38;;;;;;;0.30;0.30;;;;;;;12.62;100.00;99634.06;10583162;28;20035;-71
2022/09/26 17:01:53;;;;;;;2.45;1.60;;;;;;;12.50;100.00;99639.50;10565222;28;20072;-72
2022/09/26 17:06:54;;;;;;;0.40;0.40;;;;;;;12.39;100.00;99637.69;10584141;28;20080;-71
2022/09/26 17:12:07;;;;;;;0.43;0.43;;;;;;;12.27;100.00;99648.56;10584030;28;20415;-72
2022/09/26 17:17:13;;;;;;;0.28;0.28;;;;;;;12.15;100.00;99642.31;10565968;28;20034;-71
2022/09/26 17:22:14;;;;;;;0.43;0.43;;;;;;;12.10;100.00;99643.03;10582132;28;20042;-71
2022/09/26 17:27:16;;;;;;;0.68;0.68;;;;;;;12.07;100.00;99648.13;10582552;28;20467;-71
2022/09/26 17:32:31;;;;;;;0.30;0.30;;;;;;;12.00;100.00;99647.44;10548866;28;20473;-72
2022/09/26 17:37:31;;;;;;;0.93;0.93;;;;;;;11.93;100.00;99647.53;10564222;28;20066;-71
2022/09/26 17:42:31;;;;;;;1.98;1.88;;;;;;;11.90;100.00;99642.59;10581765;28;20087;-72
2022/09/26 17:47:32;;;;;;;0.30;0.30;;;;;;;11.87;100.00;99643.06;10562873;28;20049;-72
2022/09/26 17:52:32;;;;;;;8.68;3.80;;;;;;;11.88;100.00;99638.47;10583185;28;20383;-72
2022/09/26 17:57:33;;;;;;;0.32;0.32;;;;;;;11.88;100.00;99650.16;10563848;28;20039;-72
2022/09/26 18:02:36;;;;;;;0.50;0.50;;;;;;;11.91;100.00;99643.44;10563727;28;20039;-71
2022/09/26 18:07:38;;;;;;;1.35;1.35;;;;;;;11.93;100.00;99646.72;10564090;28;20028;-71
2022/09/26 18:12:39;;;;;;;0.55;0.55;;;;;;;11.95;100.00;99650.03;10572552;28;20024;-72
2022/09/26 18:17:39;;;;;;;0.40;0.40;;;;;;;12.01;100.00;99670.78;10571497;28;20459;-72
2022/09/26 18:22:40;;;;;;;0.38;0.38;;;;;;;11.97;100.00;99675.84;10589598;28;20050;-71
2022/09/26 18:27:40;;;;;;;0.32;0.32;;;;;;;11.75;100.00;99678.28;10589668;28;20169;-70
2022/09/26 18:32:41;;;;;;;0.85;0.85;;;;;;;11.55;100.00;99684.06;10589967;28;20540;-69
2022/09/26 18:37:42;;;;;;;0.38;0.38;;;;;;;11.48;100.00;99693.34;10570680;28;20036;-69
2022/09/26 18:42:45;;;;;;;0.30;0.30;;;;;;;11.52;100.00;99697.22;10569934;28;20044;-70
2022/09/26 18:47:46;;;;;;;0.45;0.45;;;;;;;11.52;100.00;99700.78;10570610;28;20034;-69
2022/09/26 18:52:46;;;;;;;0.30;0.30;;;;;;;11.57;100.00;99713.63;10570195;28;20371;-68
2022/09/26 19:03:06;;;;;;;0.40;0.40;;;;;;;11.32;100.00;99727.38;10586365;28;20039;-70
2022/09/26 19:08:26;;;;;;;1.73;1.60;;;;;;;11.27;100.00;99725.38;10536216;28;20024;-71
2022/09/26 19:13:27;;;;;;;44.72;2.70;;;;;;;11.16;100.00;99740.50;10570165;28;20089;-70
2022/09/26 19:18:27;;;;;;;0.40;0.40;;;;;;;11.05;100.00;99749.41;10587068;28;20089;-71
2022/09/26 19:23:30;;;;;;;0.20;0.20;;;;;;;10.89;100.00;99734.63;10586701;28;20463;-71
2022/09/26 19:28:32;;;;;;;0.20;0.20;;;;;;;10.74;100.00;99747.72;10552046;28;20028;-71
2022/09/26 19:33:33;;;;;;;0.50;0.50;;;;;;;10.66;100.00;99746.16;10569412;28;20028;-71
2022/09/26 19:38:33;;;;;;;0.40;0.40;;;;;;;10.61;100.00;99750.59;10586311;28;20403;-70
2022/09/26 19:43:33;;;;;;;0.50;0.50;;;;;;;10.61;100.00;99756.00;10569194;28;20450;-71
2022/09/26 19:48:34;;;;;;;0.40;0.40;;;;;;;10.62;100.00;99749.53;10567668;28;20127;-69
2022/09/26 19:53:34;;;;;;;0.60;0.60;;;;;;;10.65;100.00;99759.91;10551158;28;20023;-70
2022/09/26 19:58:35;;;;;;;0.40;0.40;;;;;;;10.69;100.00;99756.53;10585201;28;20168;-69
2022/09/26 20:03:38;;;;;;;0.50;0.50;;;;;;;10.77;100.00;99763.53;10585216;28;20036;-71
2022/09/26 20:08:39;;;;;;;0.55;0.55;;;;;;;10.78;100.00;99764.34;10550917;28;20035;-70
2022/09/26 20:18:59;;;;;;;0.50;0.50;;;;;;;10.65;100.00;99763.44;10554864;28;20036;-71
2022/09/26 20:23:59;;;;;;;0.45;0.45;;;;;;;10.67;100.00;99763.22;10584192;28;20035;-70
2022/09/26 20:29:00;;;;;;;0.82;0.82;;;;;;;10.70;100.00;99763.59;10568539;28;20027;-70
2022/09/26 20:34:00;;;;;;;8.60;2.90;;;;;;;10.70;100.00;99755.47;10583943;28;20114;-69
2022/09/26 20:39:03;;;;;;;0.40;0.40;;;;;;;10.76;100.00;99755.63;10584579;28;20062;-70
2022/09/26 20:44:14;;;;;;;1.00;1.00;;;;;;;10.78;100.00;99750.81;10566088;28;20031;-70
2022/09/26 20:49:21;;;;;;;0.40;0.40;;;;;;;10.78;100.00;99750.81;10583854;28;20035;-70
2022/09/26 20:54:29;;;;;;;0.95;0.95;;;;;;;10.83;100.00;99757.19;10565951;28;20118;-71
2022/09/26 20:59:33;;;;;;;0.40;0.40;;;;;;;10.82;100.00;99744.72;10582187;28;20032;-71
2022/09/26 21:04:34;;;;;;;1.48;1.48;;;;;;;10.82;100.00;99744.72;10583466;28;20110;-70
2022/09/26 21:09:34;;;;;;;0.30;0.30;;;;;;;10.77;100.00;99739.16;10585019;28;20107;-72
2022/09/26 21:14:36;;;;;;;0.50;0.50;;;;;;;10.85;100.00;99738.84;10565059;28;20111;-69
2022/09/26 21:19:36;;;;;;;0.40;0.40;;;;;;;10.86;100.00;99736.97;10564772;28;20042;-70
2022/09/26 21:24:38;;;;;;;1.27;1.27;;;;;;;10.86;100.00;99773.00;10583515;28;20379;-69
2022/09/26 21:29:39;;;;;;;0.32;0.32;;;;;;;10.75;100.00;99764.78;10581520;28;20455;-70
2022/09/26 21:34:39;;;;;;;0.40;0.40;;;;;;;10.64;100.00;99755.56;10565633;28;20060;-69
2022/09/26 21:39:40;;;;;;;0.40;0.40;;;;;;;10.56;100.00;99750.44;10583748;28;20601;-70
2022/09/26 21:44:42;;;;;;;1.15;1.15;;;;;;;10.58;100.00;99745.63;10581049;28;20048;-69
2022/09/26 21:49:44;;;;;;;0.45;0.45;;;;;;;10.60;100.00;99747.06;10582725;28;20431;-69
2022/09/26 21:54:45;;;;;;;0.50;0.50;;;;;;;10.63;100.00;99740.38;10563949;28;20062;-69
2022/09/26 21:59:46;;;;;;;0.50;0.50;;;;;;;10.67;100.00;99749.69;10563534;28;20063;-69
2022/09/26 22:04:46;;;;;;;0.52;0.52;;;;;;;10.62;100.00;99728.69;10548154;28;20118;-69
2022/09/26 22:09:47;;;;;;;0.30;0.30;;;;;;;10.54;100.00;99723.59;10581593;28;20043;-69
2022/09/26 22:14:47;;;;;;;0.40;0.40;;;;;;;10.51;100.00;99743.00;10581053;28;20036;-69
2022/09/26 22:19:50;;;;;;;0.40;0.40;;;;;;;10.44;100.00;99743.09;10581281;28;20036;-69
2022/09/26 22:24:50;;;;;;;0.30;0.30;;;;;;;10.30;100.00;99740.72;10581313;28;20092;-69
2022/09/26 22:29:51;;;;;;;0.45;0.45;;;;;;;10.19;100.00;99745.81;10581893;28;20092;-69
2022/09/26 22:34:51;;;;;;;1.50;1.50;;;;;;;10.17;100.00;99774.94;10582966;28;20058;-69
2022/09/26 22:39:52;;;;;;;0.50;0.50;;;;;;;10.07;100.00;99790.03;10580099;28;20164;-68
2022/09/26 22:44:52;;;;;;;0.35;0.35;;;;;;;9.97;100.00;99774.31;10582599;28;20047;-70
2022/09/26 22:49:53;;;;;;;2.50;2.40;;;;;;;9.91;100.00;99764.38;10581674;28;20398;-69
2022/09/26 22:54:53;;;;;;;0.40;0.40;;;;;;;9.92;100.00;99750.66;10583881;28;20032;-69
2022/09/26 22:59:54;;;;;;;0.55;0.55;;;;;;;9.91;100.00;99754.38;10587933;28;20398;-69
2022/09/26 23:04:54;;;;;;;0.50;0.50;;;;;;;9.97;100.00;99760.78;10588619;28;20387;-69
2022/09/26 23:09:54;;;;;;;0.40;0.40;;;;;;;10.08;100.00;99762.75;10587322;28;20082;-68
2022/09/26 23:14:55;;;;;;;0.40;0.40;;;;;;;10.08;100.00;99753.81;10570063;28;20035;-69
2022/09/26 23:19:55;;;;;;;0.40;0.40;;;;;;;10.08;100.00;99735.69;10587011;28;20043;-69
2022/09/26 23:24:55;;;;;;;3.13;2.88;;;;;;;10.11;100.00;99740.66;10587765;28;20375;-68
2022/09/26 23:29:56;;;;;;;0.40;0.40;;;;;;;10.20;100.00;99750.16;10587273;28;20035;-69
2022/09/26 23:34:56;;;;;;;0.50;0.50;;;;;;;10.22;100.00;99739.94;10588252;28;20471;-69
2022/09/26 23:39:57;;;;;;;0.40;0.40;;;;;;;10.19;100.00;99742.28;10586543;28;20160;-69
2022/09/26 23:44:57;;;;;;;0.50;0.50;;;;;;;10.16;100.00;99746.25;10586062;28;20036;-70